sensor_id;sensor_type;location;lat;lon;timestamp;P1;durP1;ratioP1;P2;durP2;ratioP2
18899;SDS011;9582;52.018;6.306;2022-09-09T00:01:49;7.43;;;4.13;;
18899;SDS011;9582;52.018;6.306;2022-09-09T00:04:23;5.75;;;4.70;;
18899;SDS011;9582;52.018;6.306;2022-09-09T00:06:55;7.60;;;4.65;;
18899;SDS011;9582;52.018;6.306;2022-09-09T00:09:32;4.53;;;3.90;;
18899;SDS011;9582;52.018;6.306;2022-09-09T00:12:08;5.68;;;4.53;;
18899;SDS011;9582;52.018;6.306;2022-09-09T00:14:39;7.13;;;4.45;;
18899;SDS011;9582;52.018;6.306;2022-09-09T00:17:12;6.60;;;5.68;;
18899;SDS011;9582;52.018;6.306;2022-09-09T00:19:44;8.27;;;5.15;;
18899;SDS011;9582;52.018;6.306;2022-09-09T00:22:16;7.95;;;4.50;;
18899;SDS011;9582;52.018;6.306;2022-09-09T00:24:46;6.30;;;5.32;;
18899;SDS011;9582;52.018;6.306;2022-09-09T00:27:19;7.03;;;5.70;;
18899;SDS011;9582;52.018;6.306;2022-09-09T00:29:53;7.28;;;4.80;;
18899;SDS011;9582;52.018;6.306;2022-09-09T00:32:24;6.80;;;4.95;;
18899;SDS011;9582;52.018;6.306;2022-09-09T00:34:56;6.47;;;5.03;;
18899;SDS011;9582;52.018;6.306;2022-09-09T00:37:27;7.68;;;5.60;;
18899;SDS011;9582;52.018;6.306;2022-09-09T00:39:59;5.78;;;4.72;;
18899;SDS011;9582;52.018;6.306;2022-09-09T00:42:31;7.97;;;5.55;;
18899;SDS011;9582;52.018;6.306;2022-09-09T00:45:10;6.90;;;5.05;;
18899;SDS011;9582;52.018;6.306;2022-09-09T00:47:51;6.93;;;5.28;;
18899;SDS011;9582;52.018;6.306;2022-09-09T00:50:30;8.75;;;5.15;;
18899;SDS011;9582;52.018;6.306;2022-09-09T00:53:11;8.13;;;5.63;;
18899;SDS011;9582;52.018;6.306;2022-09-09T00:55:51;7.72;;;5.57;;
18899;SDS011;9582;52.018;6.306;2022-09-09T00:58:27;8.80;;;5.53;;
18899;SDS011;9582;52.018;6.306;2022-09-09T01:00:55;9.35;;;5.63;;
18899;SDS011;9582;52.018;6.306;2022-09-09T01:03:30;5.93;;;4.90;;
18899;SDS011;9582;52.018;6.306;2022-09-09T01:06:02;6.63;;;5.20;;
18899;SDS011;9582;52.018;6.306;2022-09-09T01:11:46;6.78;;;5.45;;
18899;SDS011;9582;52.018;6.306;2022-09-09T01:14:24;6.18;;;4.97;;
18899;SDS011;9582;52.018;6.306;2022-09-09T01:16:59;5.50;;;4.95;;
18899;SDS011;9582;52.018;6.306;2022-09-09T01:19:33;6.10;;;4.85;;
18899;SDS011;9582;52.018;6.306;2022-09-09T01:22:10;5.68;;;4.47;;
18899;SDS011;9582;52.018;6.306;2022-09-09T01:24:51;6.55;;;4.90;;
18899;SDS011;9582;52.018;6.306;2022-09-09T01:28:12;6.95;;;4.82;;
18899;SDS011;9582;52.018;6.306;2022-09-09T01:30:43;5.00;;;4.43;;
18899;SDS011;9582;52.018;6.306;2022-09-09T01:33:14;6.00;;;4.25;;
18899;SDS011;9582;52.018;6.306;2022-09-09T01:35:44;5.78;;;4.30;;
18899;SDS011;9582;52.018;6.306;2022-09-09T01:38:16;4.35;;;3.92;;
18899;SDS011;9582;52.018;6.306;2022-09-09T01:40:45;7.03;;;4.30;;
18899;SDS011;9582;52.018;6.306;2022-09-09T01:43:13;4.95;;;4.13;;
18899;SDS011;9582;52.018;6.306;2022-09-09T01:45:40;6.53;;;4.72;;
18899;SDS011;9582;52.018;6.306;2022-09-09T01:48:09;4.68;;;3.95;;
18899;SDS011;9582;52.018;6.306;2022-09-09T01:50:41;5.60;;;3.70;;
18899;SDS011;9582;52.018;6.306;2022-09-09T01:53:08;5.97;;;3.58;;
18899;SDS011;9582;52.018;6.306;2022-09-09T01:55:37;6.75;;;4.25;;
18899;SDS011;9582;52.018;6.306;2022-09-09T01:58:11;5.65;;;5.05;;
18899;SDS011;9582;52.018;6.306;2022-09-09T02:00:54;7.28;;;5.80;;
18899;SDS011;9582;52.018;6.306;2022-09-09T02:03:28;10.50;;;8.02;;
18899;SDS011;9582;52.018;6.306;2022-09-09T02:06:12;11.60;;;8.48;;
18899;SDS011;9582;52.018;6.306;2022-09-09T02:08:49;9.27;;;7.97;;
18899;SDS011;9582;52.018;6.306;2022-09-09T02:11:18;12.13;;;8.77;;
18899;SDS011;9582;52.018;6.306;2022-09-09T02:14:00;11.18;;;7.88;;
18899;SDS011;9582;52.018;6.306;2022-09-09T02:16:30;10.70;;;8.00;;
18899;SDS011;9582;52.018;6.306;2022-09-09T02:19:04;9.18;;;6.88;;
18899;SDS011;9582;52.018;6.306;2022-09-09T02:21:53;11.98;;;7.78;;
18899;SDS011;9582;52.018;6.306;2022-09-09T02:24:23;10.20;;;7.30;;
18899;SDS011;9582;52.018;6.306;2022-09-09T02:26:59;9.18;;;6.90;;
18899;SDS011;9582;52.018;6.306;2022-09-09T02:29:33;7.53;;;5.97;;
18899;SDS011;9582;52.018;6.306;2022-09-09T02:32:03;7.03;;;6.22;;
18899;SDS011;9582;52.018;6.306;2022-09-09T02:34:36;10.55;;;6.38;;
18899;SDS011;9582;52.018;6.306;2022-09-09T02:37:08;9.38;;;6.35;;
18899;SDS011;9582;52.018;6.306;2022-09-09T02:39:37;8.25;;;6.97;;
18899;SDS011;9582;52.018;6.306;2022-09-09T02:42:06;9.75;;;6.85;;
18899;SDS011;9582;52.018;6.306;2022-09-09T02:44:34;8.20;;;6.45;;
18899;SDS011;9582;52.018;6.306;2022-09-09T02:47:07;8.38;;;6.13;;
18899;SDS011;9582;52.018;6.306;2022-09-09T02:49:46;6.63;;;5.30;;
18899;SDS011;9582;52.018;6.306;2022-09-09T02:52:26;7.30;;;5.43;;
18899;SDS011;9582;52.018;6.306;2022-09-09T02:54:59;6.93;;;5.50;;
18899;SDS011;9582;52.018;6.306;2022-09-09T02:57:34;6.35;;;5.00;;
18899;SDS011;9582;52.018;6.306;2022-09-09T03:00:05;8.23;;;5.05;;
18899;SDS011;9582;52.018;6.306;2022-09-09T03:02:33;5.45;;;4.95;;
18899;SDS011;9582;52.018;6.306;2022-09-09T03:05:04;5.78;;;4.43;;
18899;SDS011;9582;52.018;6.306;2022-09-09T03:07:32;7.07;;;4.35;;
18899;SDS011;9582;52.018;6.306;2022-09-09T03:09:59;5.72;;;5.07;;
18899;SDS011;9582;52.018;6.306;2022-09-09T03:12:26;6.68;;;5.65;;
18899;SDS011;9582;52.018;6.306;2022-09-09T03:14:53;9.30;;;6.07;;
18899;SDS011;9582;52.018;6.306;2022-09-09T03:17:21;11.30;;;6.80;;
18899;SDS011;9582;52.018;6.306;2022-09-09T03:19:52;7.67;;;6.57;;
18899;SDS011;9582;52.018;6.306;2022-09-09T03:22:20;7.80;;;6.28;;
18899;SDS011;9582;52.018;6.306;2022-09-09T03:24:47;8.73;;;7.80;;
18899;SDS011;9582;52.018;6.306;2022-09-09T03:27:14;11.10;;;7.97;;
18899;SDS011;9582;52.018;6.306;2022-09-09T03:29:40;11.77;;;8.13;;
18899;SDS011;9582;52.018;6.306;2022-09-09T03:32:12;10.75;;;7.70;;
18899;SDS011;9582;52.018;6.306;2022-09-09T03:34:40;10.40;;;7.50;;
18899;SDS011;9582;52.018;6.306;2022-09-09T03:37:10;9.98;;;7.60;;
18899;SDS011;9582;52.018;6.306;2022-09-09T03:39:38;9.03;;;7.93;;
18899;SDS011;9582;52.018;6.306;2022-09-09T03:42:06;10.37;;;7.97;;
18899;SDS011;9582;52.018;6.306;2022-09-09T03:44:32;10.60;;;7.53;;
18899;SDS011;9582;52.018;6.306;2022-09-09T03:46:59;10.53;;;7.57;;
18899;SDS011;9582;52.018;6.306;2022-09-09T03:49:26;10.60;;;7.43;;
18899;SDS011;9582;52.018;6.306;2022-09-09T03:51:55;9.30;;;6.28;;
18899;SDS011;9582;52.018;6.306;2022-09-09T03:54:23;12.85;;;7.03;;
18899;SDS011;9582;52.018;6.306;2022-09-09T03:56:50;9.35;;;7.03;;
18899;SDS011;9582;52.018;6.306;2022-09-09T03:59:17;9.65;;;7.00;;
18899;SDS011;9582;52.018;6.306;2022-09-09T04:01:44;11.25;;;7.28;;
18899;SDS011;9582;52.018;6.306;2022-09-09T04:04:12;12.30;;;7.55;;
18899;SDS011;9582;52.018;6.306;2022-09-09T04:06:39;9.63;;;7.35;;
18899;SDS011;9582;52.018;6.306;2022-09-09T04:09:07;11.85;;;7.53;;
18899;SDS011;9582;52.018;6.306;2022-09-09T04:11:34;10.63;;;7.32;;
18899;SDS011;9582;52.018;6.306;2022-09-09T04:14:02;11.05;;;6.78;;
18899;SDS011;9582;52.018;6.306;2022-09-09T04:16:29;10.15;;;6.95;;
18899;SDS011;9582;52.018;6.306;2022-09-09T04:18:55;9.38;;;7.28;;
18899;SDS011;9582;52.018;6.306;2022-09-09T04:21:23;10.93;;;7.75;;
18899;SDS011;9582;52.018;6.306;2022-09-09T04:23:50;10.43;;;7.87;;
18899;SDS011;9582;52.018;6.306;2022-09-09T04:26:19;11.75;;;8.40;;
18899;SDS011;9582;52.018;6.306;2022-09-09T04:28:46;10.60;;;7.57;;
18899;SDS011;9582;52.018;6.306;2022-09-09T04:31:17;10.40;;;7.85;;
18899;SDS011;9582;52.018;6.306;2022-09-09T04:33:47;12.18;;;7.50;;
18899;SDS011;9582;52.018;6.306;2022-09-09T04:36:15;12.50;;;8.68;;
18899;SDS011;9582;52.018;6.306;2022-09-09T04:38:42;13.32;;;8.52;;
18899;SDS011;9582;52.018;6.306;2022-09-09T04:41:09;11.90;;;7.97;;
18899;SDS011;9582;52.018;6.306;2022-09-09T04:43:40;10.38;;;8.07;;
18899;SDS011;9582;52.018;6.306;2022-09-09T04:46:08;14.30;;;8.50;;
18899;SDS011;9582;52.018;6.306;2022-09-09T04:48:34;12.13;;;8.57;;
18899;SDS011;9582;52.018;6.306;2022-09-09T04:51:03;13.25;;;8.30;;
18899;SDS011;9582;52.018;6.306;2022-09-09T04:53:32;13.23;;;8.10;;
18899;SDS011;9582;52.018;6.306;2022-09-09T04:56:03;9.95;;;7.55;;
18899;SDS011;9582;52.018;6.306;2022-09-09T04:58:34;12.40;;;8.55;;
18899;SDS011;9582;52.018;6.306;2022-09-09T05:01:06;10.15;;;8.15;;
18899;SDS011;9582;52.018;6.306;2022-09-09T05:03:34;13.48;;;8.02;;
18899;SDS011;9582;52.018;6.306;2022-09-09T05:06:03;12.80;;;8.25;;
18899;SDS011;9582;52.018;6.306;2022-09-09T05:08:31;13.65;;;7.25;;
18899;SDS011;9582;52.018;6.306;2022-09-09T05:10:58;13.52;;;8.00;;
18899;SDS011;9582;52.018;6.306;2022-09-09T05:13:25;13.95;;;7.80;;
18899;SDS011;9582;52.018;6.306;2022-09-09T05:15:52;13.40;;;8.10;;
18899;SDS011;9582;52.018;6.306;2022-09-09T05:18:20;15.07;;;7.88;;
18899;SDS011;9582;52.018;6.306;2022-09-09T05:20:48;14.48;;;7.55;;
18899;SDS011;9582;52.018;6.306;2022-09-09T05:23:16;10.88;;;7.00;;
18899;SDS011;9582;52.018;6.306;2022-09-09T05:25:43;10.00;;;7.72;;
18899;SDS011;9582;52.018;6.306;2022-09-09T05:28:12;11.45;;;7.03;;
18899;SDS011;9582;52.018;6.306;2022-09-09T05:30:39;14.88;;;7.70;;
18899;SDS011;9582;52.018;6.306;2022-09-09T05:33:06;18.42;;;7.30;;
18899;SDS011;9582;52.018;6.306;2022-09-09T05:35:35;13.95;;;7.72;;
18899;SDS011;9582;52.018;6.306;2022-09-09T05:38:03;12.98;;;7.53;;
18899;SDS011;9582;52.018;6.306;2022-09-09T05:40:30;11.10;;;7.15;;
18899;SDS011;9582;52.018;6.306;2022-09-09T05:42:59;11.27;;;6.97;;
18899;SDS011;9582;52.018;6.306;2022-09-09T05:45:26;10.02;;;6.78;;
18899;SDS011;9582;52.018;6.306;2022-09-09T05:47:54;11.68;;;7.05;;
18899;SDS011;9582;52.018;6.306;2022-09-09T05:50:20;11.10;;;6.55;;
18899;SDS011;9582;52.018;6.306;2022-09-09T05:52:50;11.52;;;6.55;;
18899;SDS011;9582;52.018;6.306;2022-09-09T05:55:20;13.07;;;6.80;;
18899;SDS011;9582;52.018;6.306;2022-09-09T05:57:48;15.07;;;6.90;;
18899;SDS011;9582;52.018;6.306;2022-09-09T06:00:17;9.73;;;6.40;;
18899;SDS011;9582;52.018;6.306;2022-09-09T06:02:50;6.18;;;5.25;;
18899;SDS011;9582;52.018;6.306;2022-09-09T06:05:18;9.52;;;5.88;;
18899;SDS011;9582;52.018;6.306;2022-09-09T06:07:45;12.07;;;5.93;;
18899;SDS011;9582;52.018;6.306;2022-09-09T06:10:13;8.70;;;5.93;;
18899;SDS011;9582;52.018;6.306;2022-09-09T06:12:40;11.98;;;6.03;;
18899;SDS011;9582;52.018;6.306;2022-09-09T06:15:07;10.68;;;5.80;;
18899;SDS011;9582;52.018;6.306;2022-09-09T06:17:35;8.73;;;5.97;;
18899;SDS011;9582;52.018;6.306;2022-09-09T06:20:02;8.38;;;5.75;;
18899;SDS011;9582;52.018;6.306;2022-09-09T06:22:30;11.73;;;5.43;;
18899;SDS011;9582;52.018;6.306;2022-09-09T06:24:57;10.52;;;5.95;;
18899;SDS011;9582;52.018;6.306;2022-09-09T06:27:24;8.23;;;5.70;;
18899;SDS011;9582;52.018;6.306;2022-09-09T06:29:53;10.35;;;5.38;;
18899;SDS011;9582;52.018;6.306;2022-09-09T06:32:20;8.93;;;4.93;;
18899;SDS011;9582;52.018;6.306;2022-09-09T06:34:46;11.48;;;5.38;;
18899;SDS011;9582;52.018;6.306;2022-09-09T06:37:14;10.27;;;5.55;;
18899;SDS011;9582;52.018;6.306;2022-09-09T06:39:46;11.55;;;5.45;;
18899;SDS011;9582;52.018;6.306;2022-09-09T06:42:13;11.18;;;5.22;;
18899;SDS011;9582;52.018;6.306;2022-09-09T06:45:00;11.07;;;4.93;;
18899;SDS011;9582;52.018;6.306;2022-09-09T06:47:34;9.35;;;4.80;;
18899;SDS011;9582;52.018;6.306;2022-09-09T06:50:01;9.50;;;4.90;;
18899;SDS011;9582;52.018;6.306;2022-09-09T06:52:31;10.77;;;5.40;;
18899;SDS011;9582;52.018;6.306;2022-09-09T06:54:59;8.52;;;5.03;;
18899;SDS011;9582;52.018;6.306;2022-09-09T06:57:26;10.30;;;4.70;;
18899;SDS011;9582;52.018;6.306;2022-09-09T06:59:52;10.32;;;5.13;;
18899;SDS011;9582;52.018;6.306;2022-09-09T07:02:20;11.70;;;4.55;;
18899;SDS011;9582;52.018;6.306;2022-09-09T07:04:47;10.25;;;4.53;;
18899;SDS011;9582;52.018;6.306;2022-09-09T07:07:16;9.90;;;4.32;;
18899;SDS011;9582;52.018;6.306;2022-09-09T07:09:43;6.93;;;4.05;;
18899;SDS011;9582;52.018;6.306;2022-09-09T07:12:11;11.10;;;4.30;;
18899;SDS011;9582;52.018;6.306;2022-09-09T07:14:44;5.80;;;4.13;;
18899;SDS011;9582;52.018;6.306;2022-09-09T07:17:11;10.63;;;4.32;;
18899;SDS011;9582;52.018;6.306;2022-09-09T07:19:40;5.57;;;3.90;;
18899;SDS011;9582;52.018;6.306;2022-09-09T07:22:08;7.07;;;4.20;;
18899;SDS011;9582;52.018;6.306;2022-09-09T07:24:36;9.63;;;4.28;;
18899;SDS011;9582;52.018;6.306;2022-09-09T07:27:03;9.02;;;4.07;;
18899;SDS011;9582;52.018;6.306;2022-09-09T07:29:30;8.20;;;4.00;;
18899;SDS011;9582;52.018;6.306;2022-09-09T07:31:58;9.02;;;3.53;;
18899;SDS011;9582;52.018;6.306;2022-09-09T07:34:30;8.93;;;3.88;;
18899;SDS011;9582;52.018;6.306;2022-09-09T07:36:58;8.50;;;3.78;;
18899;SDS011;9582;52.018;6.306;2022-09-09T07:39:24;9.70;;;3.90;;
18899;SDS011;9582;52.018;6.306;2022-09-09T07:41:53;8.88;;;3.80;;
18899;SDS011;9582;52.018;6.306;2022-09-09T07:44:22;8.68;;;3.20;;
18899;SDS011;9582;52.018;6.306;2022-09-09T07:47:02;8.52;;;3.92;;
18899;SDS011;9582;52.018;6.306;2022-09-09T07:49:34;7.22;;;4.00;;
18899;SDS011;9582;52.018;6.306;2022-09-09T07:52:04;9.70;;;3.90;;
18899;SDS011;9582;52.018;6.306;2022-09-09T07:54:31;8.55;;;3.90;;
18899;SDS011;9582;52.018;6.306;2022-09-09T07:56:59;9.48;;;3.83;;
18899;SDS011;9582;52.018;6.306;2022-09-09T07:59:29;10.40;;;3.63;;
18899;SDS011;9582;52.018;6.306;2022-09-09T08:01:57;6.30;;;3.55;;
18899;SDS011;9582;52.018;6.306;2022-09-09T08:04:27;8.02;;;3.47;;
18899;SDS011;9582;52.018;6.306;2022-09-09T08:06:55;9.98;;;3.65;;
18899;SDS011;9582;52.018;6.306;2022-09-09T08:09:26;7.20;;;3.38;;
18899;SDS011;9582;52.018;6.306;2022-09-09T08:11:58;7.57;;;3.63;;
18899;SDS011;9582;52.018;6.306;2022-09-09T08:14:25;10.23;;;3.63;;
18899;SDS011;9582;52.018;6.306;2022-09-09T08:16:52;10.20;;;3.85;;
18899;SDS011;9582;52.018;6.306;2022-09-09T08:19:21;11.45;;;3.45;;
18899;SDS011;9582;52.018;6.306;2022-09-09T08:21:48;8.10;;;3.10;;
18899;SDS011;9582;52.018;6.306;2022-09-09T08:24:15;5.70;;;3.03;;
18899;SDS011;9582;52.018;6.306;2022-09-09T08:26:48;7.88;;;3.05;;
18899;SDS011;9582;52.018;6.306;2022-09-09T08:29:17;8.52;;;2.92;;
18899;SDS011;9582;52.018;6.306;2022-09-09T08:31:46;8.38;;;2.40;;
18899;SDS011;9582;52.018;6.306;2022-09-09T08:34:14;9.45;;;2.65;;
18899;SDS011;9582;52.018;6.306;2022-09-09T08:36:43;8.48;;;2.55;;
18899;SDS011;9582;52.018;6.306;2022-09-09T08:39:13;6.57;;;2.60;;
18899;SDS011;9582;52.018;6.306;2022-09-09T08:41:59;8.27;;;2.75;;
18899;SDS011;9582;52.018;6.306;2022-09-09T08:44:42;7.65;;;2.70;;
18899;SDS011;9582;52.018;6.306;2022-09-09T08:47:22;9.02;;;2.40;;
18899;SDS011;9582;52.018;6.306;2022-09-09T08:50:05;5.05;;;2.45;;
18899;SDS011;9582;52.018;6.306;2022-09-09T08:52:52;5.53;;;2.10;;
18899;SDS011;9582;52.018;6.306;2022-09-09T08:55:35;6.93;;;2.40;;
18899;SDS011;9582;52.018;6.306;2022-09-09T08:58:11;10.40;;;3.08;;
18899;SDS011;9582;52.018;6.306;2022-09-09T09:00:44;6.40;;;2.40;;
18899;SDS011;9582;52.018;6.306;2022-09-09T09:03:22;8.20;;;2.47;;
18899;SDS011;9582;52.018;6.306;2022-09-09T09:05:57;10.95;;;2.55;;
18899;SDS011;9582;52.018;6.306;2022-09-09T09:08:31;5.82;;;2.13;;
18899;SDS011;9582;52.018;6.306;2022-09-09T09:11:04;6.25;;;2.20;;
18899;SDS011;9582;52.018;6.306;2022-09-09T09:13:34;9.32;;;2.42;;
18899;SDS011;9582;52.018;6.306;2022-09-09T09:16:10;5.18;;;2.10;;
18899;SDS011;9582;52.018;6.306;2022-09-09T09:18:44;5.85;;;2.38;;
18899;SDS011;9582;52.018;6.306;2022-09-09T09:21:12;8.27;;;2.97;;
18899;SDS011;9582;52.018;6.306;2022-09-09T09:23:45;4.22;;;2.05;;
18899;SDS011;9582;52.018;6.306;2022-09-09T09:26:18;4.88;;;1.98;;
18899;SDS011;9582;52.018;6.306;2022-09-09T09:28:49;6.88;;;2.33;;
18899;SDS011;9582;52.018;6.306;2022-09-09T09:31:17;8.32;;;2.03;;
18899;SDS011;9582;52.018;6.306;2022-09-09T09:33:47;5.25;;;2.25;;
18899;SDS011;9582;52.018;6.306;2022-09-09T09:36:17;5.60;;;1.83;;
18899;SDS011;9582;52.018;6.306;2022-09-09T09:38:53;8.23;;;2.03;;
18899;SDS011;9582;52.018;6.306;2022-09-09T09:41:28;6.47;;;2.03;;
18899;SDS011;9582;52.018;6.306;2022-09-09T09:43:58;7.10;;;2.03;;
18899;SDS011;9582;52.018;6.306;2022-09-09T09:46:27;8.30;;;2.03;;
18899;SDS011;9582;52.018;6.306;2022-09-09T09:49:08;5.57;;;2.17;;
18899;SDS011;9582;52.018;6.306;2022-09-09T09:51:36;7.93;;;2.10;;
18899;SDS011;9582;52.018;6.306;2022-09-09T09:54:08;4.95;;;2.03;;
18899;SDS011;9582;52.018;6.306;2022-09-09T09:56:47;7.47;;;2.00;;
18899;SDS011;9582;52.018;6.306;2022-09-09T09:59:24;6.28;;;2.00;;
18899;SDS011;9582;52.018;6.306;2022-09-09T10:02:13;8.95;;;2.33;;
18899;SDS011;9582;52.018;6.306;2022-09-09T10:04:41;3.92;;;1.70;;
18899;SDS011;9582;52.018;6.306;2022-09-09T10:07:11;6.10;;;1.95;;
18899;SDS011;9582;52.018;6.306;2022-09-09T10:09:39;6.95;;;1.90;;
18899;SDS011;9582;52.018;6.306;2022-09-09T10:12:08;3.85;;;1.38;;
18899;SDS011;9582;52.018;6.306;2022-09-09T10:14:48;5.28;;;1.73;;
18899;SDS011;9582;52.018;6.306;2022-09-09T10:17:29;7.05;;;1.70;;
18899;SDS011;9582;52.018;6.306;2022-09-09T10:20:16;8.63;;;1.75;;
18899;SDS011;9582;52.018;6.306;2022-09-09T10:22:51;4.25;;;1.52;;
18899;SDS011;9582;52.018;6.306;2022-09-09T10:25:29;8.15;;;2.05;;
18899;SDS011;9582;52.018;6.306;2022-09-09T10:28:25;6.97;;;1.80;;
18899;SDS011;9582;52.018;6.306;2022-09-09T10:31:22;6.65;;;1.52;;
18899;SDS011;9582;52.018;6.306;2022-09-09T10:33:56;5.57;;;1.73;;
18899;SDS011;9582;52.018;6.306;2022-09-09T10:36:28;6.78;;;1.77;;
18899;SDS011;9582;52.018;6.306;2022-09-09T10:38:57;6.35;;;2.17;;
18899;SDS011;9582;52.018;6.306;2022-09-09T10:41:35;8.88;;;2.08;;
18899;SDS011;9582;52.018;6.306;2022-09-09T10:44:15;6.30;;;1.60;;
18899;SDS011;9582;52.018;6.306;2022-09-09T10:46:55;5.47;;;2.03;;
18899;SDS011;9582;52.018;6.306;2022-09-09T10:49:38;4.70;;;1.67;;
18899;SDS011;9582;52.018;6.306;2022-09-09T10:52:21;5.72;;;1.75;;
18899;SDS011;9582;52.018;6.306;2022-09-09T10:54:55;7.45;;;2.00;;
18899;SDS011;9582;52.018;6.306;2022-09-09T10:57:27;5.30;;;1.55;;
18899;SDS011;9582;52.018;6.306;2022-09-09T10:59:58;4.18;;;1.42;;
18899;SDS011;9582;52.018;6.306;2022-09-09T11:02:32;6.78;;;1.38;;
18899;SDS011;9582;52.018;6.306;2022-09-09T11:05:01;2.17;;;1.30;;
18899;SDS011;9582;52.018;6.306;2022-09-09T11:07:33;5.28;;;2.25;;
18899;SDS011;9582;52.018;6.306;2022-09-09T11:10:07;7.85;;;1.73;;
18899;SDS011;9582;52.018;6.306;2022-09-09T11:12:45;3.90;;;1.30;;
18899;SDS011;9582;52.018;6.306;2022-09-09T11:15:16;5.57;;;1.98;;
18899;SDS011;9582;52.018;6.306;2022-09-09T11:17:48;5.68;;;1.63;;
18899;SDS011;9582;52.018;6.306;2022-09-09T11:20:20;3.88;;;1.38;;
18899;SDS011;9582;52.018;6.306;2022-09-09T11:22:47;5.57;;;1.55;;
18899;SDS011;9582;52.018;6.306;2022-09-09T11:25:19;4.90;;;1.90;;
18899;SDS011;9582;52.018;6.306;2022-09-09T11:27:53;6.03;;;1.80;;
18899;SDS011;9582;52.018;6.306;2022-09-09T11:30:32;5.97;;;1.58;;
18899;SDS011;9582;52.018;6.306;2022-09-09T11:39:26;7.13;;;1.63;;
18899;SDS011;9582;52.018;6.306;2022-09-09T11:42:06;4.20;;;1.30;;
18899;SDS011;9582;52.018;6.306;2022-09-09T11:44:34;6.25;;;1.70;;
18899;SDS011;9582;52.018;6.306;2022-09-09T11:47:00;5.65;;;1.60;;
18899;SDS011;9582;52.018;6.306;2022-09-09T11:49:29;7.28;;;1.90;;
18899;SDS011;9582;52.018;6.306;2022-09-09T11:52:10;6.88;;;1.90;;
18899;SDS011;9582;52.018;6.306;2022-09-09T11:54:44;8.23;;;1.70;;
18899;SDS011;9582;52.018;6.306;2022-09-09T11:57:17;5.40;;;1.70;;
18899;SDS011;9582;52.018;6.306;2022-09-09T11:59:51;5.30;;;1.70;;
18899;SDS011;9582;52.018;6.306;2022-09-09T12:02:18;6.18;;;1.60;;
18899;SDS011;9582;52.018;6.306;2022-09-09T12:04:54;7.00;;;1.60;;
18899;SDS011;9582;52.018;6.306;2022-09-09T12:07:26;5.88;;;2.17;;
18899;SDS011;9582;52.018;6.306;2022-09-09T12:09:58;5.78;;;1.60;;
18899;SDS011;9582;52.018;6.306;2022-09-09T12:12:29;5.10;;;1.50;;
18899;SDS011;9582;52.018;6.306;2022-09-09T12:14:59;5.07;;;1.83;;
18899;SDS011;9582;52.018;6.306;2022-09-09T12:17:29;4.05;;;1.73;;
18899;SDS011;9582;52.018;6.306;2022-09-09T12:20:03;4.35;;;1.70;;
18899;SDS011;9582;52.018;6.306;2022-09-09T12:22:36;6.53;;;2.25;;
18899;SDS011;9582;52.018;6.306;2022-09-09T12:25:13;3.92;;;1.45;;
18899;SDS011;9582;52.018;6.306;2022-09-09T12:27:50;3.67;;;1.13;;
18899;SDS011;9582;52.018;6.306;2022-09-09T12:30:28;2.97;;;1.50;;
18899;SDS011;9582;52.018;6.306;2022-09-09T12:33:01;2.78;;;1.58;;
18899;SDS011;9582;52.018;6.306;2022-09-09T12:35:29;4.50;;;1.48;;
18899;SDS011;9582;52.018;6.306;2022-09-09T12:37:57;5.32;;;1.90;;
18899;SDS011;9582;52.018;6.306;2022-09-09T12:40:27;2.67;;;1.83;;
18899;SDS011;9582;52.018;6.306;2022-09-09T12:42:56;4.57;;;1.90;;
18899;SDS011;9582;52.018;6.306;2022-09-09T12:45:25;4.38;;;1.65;;
18899;SDS011;9582;52.018;6.306;2022-09-09T12:47:55;6.15;;;1.92;;
18899;SDS011;9582;52.018;6.306;2022-09-09T12:50:26;4.15;;;1.73;;
18899;SDS011;9582;52.018;6.306;2022-09-09T12:52:57;4.78;;;1.75;;
18899;SDS011;9582;52.018;6.306;2022-09-09T12:55:27;7.65;;;2.17;;
18899;SDS011;9582;52.018;6.306;2022-09-09T12:57:56;6.53;;;1.92;;
18899;SDS011;9582;52.018;6.306;2022-09-09T13:00:24;6.43;;;2.30;;
18899;SDS011;9582;52.018;6.306;2022-09-09T13:02:52;5.22;;;2.20;;
18899;SDS011;9582;52.018;6.306;2022-09-09T13:05:21;4.45;;;2.30;;
18899;SDS011;9582;52.018;6.306;2022-09-09T13:07:49;4.53;;;2.35;;
18899;SDS011;9582;52.018;6.306;2022-09-09T13:10:20;5.55;;;2.75;;
18899;SDS011;9582;52.018;6.306;2022-09-09T13:12:52;4.70;;;2.30;;
18899;SDS011;9582;52.018;6.306;2022-09-09T13:15:20;5.90;;;2.88;;
18899;SDS011;9582;52.018;6.306;2022-09-09T13:17:50;6.32;;;2.88;;
18899;SDS011;9582;52.018;6.306;2022-09-09T13:20:22;6.55;;;2.60;;
18899;SDS011;9582;52.018;6.306;2022-09-09T13:22:50;5.75;;;2.63;;
18899;SDS011;9582;52.018;6.306;2022-09-09T13:25:21;3.78;;;2.40;;
18899;SDS011;9582;52.018;6.306;2022-09-09T13:27:58;4.95;;;2.60;;
18899;SDS011;9582;52.018;6.306;2022-09-09T13:30:28;4.50;;;2.30;;
18899;SDS011;9582;52.018;6.306;2022-09-09T13:33:01;4.15;;;2.10;;
18899;SDS011;9582;52.018;6.306;2022-09-09T13:35:28;3.22;;;2.03;;
18899;SDS011;9582;52.018;6.306;2022-09-09T13:37:56;3.10;;;2.50;;
18899;SDS011;9582;52.018;6.306;2022-09-09T13:40:25;4.50;;;2.67;;
18899;SDS011;9582;52.018;6.306;2022-09-09T13:42:51;3.88;;;2.50;;
18899;SDS011;9582;52.018;6.306;2022-09-09T13:45:22;5.32;;;2.75;;
18899;SDS011;9582;52.018;6.306;2022-09-09T13:47:51;4.90;;;2.17;;
18899;SDS011;9582;52.018;6.306;2022-09-09T13:50:21;4.07;;;2.58;;
18899;SDS011;9582;52.018;6.306;2022-09-09T13:52:49;4.13;;;2.28;;
18899;SDS011;9582;52.018;6.306;2022-09-09T13:55:18;5.82;;;2.30;;
18899;SDS011;9582;52.018;6.306;2022-09-09T13:57:51;4.63;;;2.45;;
18899;SDS011;9582;52.018;6.306;2022-09-09T14:00:19;3.55;;;2.40;;
18899;SDS011;9582;52.018;6.306;2022-09-09T14:02:46;5.53;;;2.40;;
18899;SDS011;9582;52.018;6.306;2022-09-09T14:05:12;4.88;;;3.00;;
18899;SDS011;9582;52.018;6.306;2022-09-09T14:07:40;4.72;;;2.42;;
18899;SDS011;9582;52.018;6.306;2022-09-09T14:10:07;6.93;;;2.75;;
18899;SDS011;9582;52.018;6.306;2022-09-09T14:12:34;5.70;;;2.58;;
18899;SDS011;9582;52.018;6.306;2022-09-09T14:15:02;4.30;;;2.35;;
18899;SDS011;9582;52.018;6.306;2022-09-09T14:17:29;3.92;;;2.30;;
18899;SDS011;9582;52.018;6.306;2022-09-09T14:19:56;4.30;;;2.60;;
18899;SDS011;9582;52.018;6.306;2022-09-09T14:22:22;4.03;;;2.20;;
18899;SDS011;9582;52.018;6.306;2022-09-09T14:24:50;5.22;;;2.50;;
18899;SDS011;9582;52.018;6.306;2022-09-09T14:27:17;4.47;;;2.45;;
18899;SDS011;9582;52.018;6.306;2022-09-09T14:29:44;5.28;;;2.47;;
18899;SDS011;9582;52.018;6.306;2022-09-09T14:32:12;7.05;;;2.30;;
18899;SDS011;9582;52.018;6.306;2022-09-09T14:34:39;7.00;;;2.50;;
18899;SDS011;9582;52.018;6.306;2022-09-09T14:37:05;3.35;;;2.20;;
18899;SDS011;9582;52.018;6.306;2022-09-09T14:39:32;4.72;;;2.15;;
18899;SDS011;9582;52.018;6.306;2022-09-09T14:41:59;5.22;;;2.47;;
18899;SDS011;9582;52.018;6.306;2022-09-09T14:44:27;8.98;;;2.95;;
18899;SDS011;9582;52.018;6.306;2022-09-09T14:46:54;7.50;;;2.90;;
18899;SDS011;9582;52.018;6.306;2022-09-09T14:49:21;6.38;;;2.88;;
18899;SDS011;9582;52.018;6.306;2022-09-09T14:51:48;5.40;;;2.88;;
18899;SDS011;9582;52.018;6.306;2022-09-09T14:54:14;6.00;;;3.33;;
18899;SDS011;9582;52.018;6.306;2022-09-09T14:56:41;9.05;;;3.67;;
18899;SDS011;9582;52.018;6.306;2022-09-09T14:59:07;6.53;;;3.58;;
18899;SDS011;9582;52.018;6.306;2022-09-09T15:01:34;6.65;;;3.30;;
18899;SDS011;9582;52.018;6.306;2022-09-09T15:04:01;6.43;;;2.97;;
18899;SDS011;9582;52.018;6.306;2022-09-09T15:06:32;5.45;;;2.70;;
18899;SDS011;9582;52.018;6.306;2022-09-09T15:09:03;7.07;;;2.63;;
18899;SDS011;9582;52.018;6.306;2022-09-09T15:11:31;4.38;;;2.53;;
18899;SDS011;9582;52.018;6.306;2022-09-09T15:14:02;5.32;;;2.50;;
18899;SDS011;9582;52.018;6.306;2022-09-09T15:16:30;6.63;;;2.60;;
18899;SDS011;9582;52.018;6.306;2022-09-09T15:18:58;6.03;;;2.53;;
18899;SDS011;9582;52.018;6.306;2022-09-09T15:21:26;7.15;;;2.70;;
18899;SDS011;9582;52.018;6.306;2022-09-09T15:23:56;4.93;;;2.75;;
18899;SDS011;9582;52.018;6.306;2022-09-09T15:26:23;6.97;;;2.50;;
18899;SDS011;9582;52.018;6.306;2022-09-09T15:28:50;5.55;;;2.58;;
18899;SDS011;9582;52.018;6.306;2022-09-09T15:31:18;8.15;;;2.60;;